sensor_id;sensor_type;location;lat;lon;timestamp;P1;durP1;ratioP1;P2;durP2;ratioP2
3683;SDS011;1858;48.716;9.648;2024-01-15T00:02:18;28.70;;;12.00;;
3683;SDS011;1858;48.716;9.648;2024-01-15T00:04:46;33.17;;;10.20;;
3683;SDS011;1858;48.716;9.648;2024-01-15T00:07:14;22.47;;;10.17;;
3683;SDS011;1858;48.716;9.648;2024-01-15T00:09:43;25.67;;;11.07;;
3683;SDS011;1858;48.716;9.648;2024-01-15T00:12:11;26.90;;;9.70;;
3683;SDS011;1858;48.716;9.648;2024-01-15T00:14:40;35.63;;;9.70;;
3683;SDS011;1858;48.716;9.648;2024-01-15T00:17:09;26.73;;;11.73;;
3683;SDS011;1858;48.716;9.648;2024-01-15T00:19:38;27.07;;;10.13;;
3683;SDS011;1858;48.716;9.648;2024-01-15T00:22:06;31.93;;;12.90;;
3683;SDS011;1858;48.716;9.648;2024-01-15T00:24:34;29.43;;;12.30;;
3683;SDS011;1858;48.716;9.648;2024-01-15T00:27:03;22.53;;;11.40;;
3683;SDS011;1858;48.716;9.648;2024-01-15T00:29:31;18.30;;;9.00;;
3683;SDS011;1858;48.716;9.648;2024-01-15T00:32:00;24.83;;;9.77;;
3683;SDS011;1858;48.716;9.648;2024-01-15T00:34:28;20.17;;;10.07;;
3683;SDS011;1858;48.716;9.648;2024-01-15T00:36:57;23.83;;;9.27;;
3683;SDS011;1858;48.716;9.648;2024-01-15T00:39:25;29.00;;;10.97;;
3683;SDS011;1858;48.716;9.648;2024-01-15T00:41:54;28.10;;;11.47;;
3683;SDS011;1858;48.716;9.648;2024-01-15T00:44:22;34.17;;;13.23;;
3683;SDS011;1858;48.716;9.648;2024-01-15T00:46:51;29.37;;;12.00;;
3683;SDS011;1858;48.716;9.648;2024-01-15T00:49:19;24.50;;;9.87;;
3683;SDS011;1858;48.716;9.648;2024-01-15T00:51:47;20.87;;;11.50;;
3683;SDS011;1858;48.716;9.648;2024-01-15T00:54:16;27.17;;;9.30;;
3683;SDS011;1858;48.716;9.648;2024-01-15T00:56:44;23.47;;;9.97;;
3683;SDS011;1858;48.716;9.648;2024-01-15T00:59:13;23.50;;;10.13;;
3683;SDS011;1858;48.716;9.648;2024-01-15T01:01:41;27.40;;;12.40;;
3683;SDS011;1858;48.716;9.648;2024-01-15T01:04:10;32.57;;;11.00;;
3683;SDS011;1858;48.716;9.648;2024-01-15T01:06:38;22.47;;;11.17;;
3683;SDS011;1858;48.716;9.648;2024-01-15T01:09:07;29.07;;;11.23;;
3683;SDS011;1858;48.716;9.648;2024-01-15T01:11:35;33.57;;;11.67;;
3683;SDS011;1858;48.716;9.648;2024-01-15T01:14:04;14.23;;;8.00;;
3683;SDS011;1858;48.716;9.648;2024-01-15T01:16:33;28.53;;;10.03;;
3683;SDS011;1858;48.716;9.648;2024-01-15T01:19:03;19.33;;;10.60;;
3683;SDS011;1858;48.716;9.648;2024-01-15T01:21:33;19.97;;;8.63;;
3683;SDS011;1858;48.716;9.648;2024-01-15T01:24:01;24.27;;;10.90;;
3683;SDS011;1858;48.716;9.648;2024-01-15T01:26:30;28.90;;;11.43;;
3683;SDS011;1858;48.716;9.648;2024-01-15T01:31:46;18.93;;;8.47;;
3683;SDS011;1858;48.716;9.648;2024-01-15T01:34:15;20.00;;;9.00;;
3683;SDS011;1858;48.716;9.648;2024-01-15T01:36:44;20.50;;;8.13;;
3683;SDS011;1858;48.716;9.648;2024-01-15T01:39:12;17.03;;;9.50;;
3683;SDS011;1858;48.716;9.648;2024-01-15T01:41:41;20.27;;;9.00;;
3683;SDS011;1858;48.716;9.648;2024-01-15T01:44:09;19.80;;;9.27;;
3683;SDS011;1858;48.716;9.648;2024-01-15T01:46:38;24.03;;;10.77;;
3683;SDS011;1858;48.716;9.648;2024-01-15T01:49:07;21.07;;;9.87;;
3683;SDS011;1858;48.716;9.648;2024-01-15T01:51:37;23.37;;;9.17;;
3683;SDS011;1858;48.716;9.648;2024-01-15T01:54:06;21.60;;;10.53;;
3683;SDS011;1858;48.716;9.648;2024-01-15T01:56:37;18.70;;;8.43;;
3683;SDS011;1858;48.716;9.648;2024-01-15T01:59:06;23.63;;;9.07;;
3683;SDS011;1858;48.716;9.648;2024-01-15T02:01:37;24.07;;;8.90;;
3683;SDS011;1858;48.716;9.648;2024-01-15T02:04:06;25.57;;;9.83;;
3683;SDS011;1858;48.716;9.648;2024-01-15T02:06:36;17.07;;;7.40;;
3683;SDS011;1858;48.716;9.648;2024-01-15T02:09:04;19.43;;;7.83;;
3683;SDS011;1858;48.716;9.648;2024-01-15T02:11:33;24.70;;;10.47;;
3683;SDS011;1858;48.716;9.648;2024-01-15T02:14:01;18.63;;;8.20;;
3683;SDS011;1858;48.716;9.648;2024-01-15T02:16:30;18.63;;;8.63;;
3683;SDS011;1858;48.716;9.648;2024-01-15T02:18:59;17.80;;;7.23;;
3683;SDS011;1858;48.716;9.648;2024-01-15T02:21:27;16.73;;;7.77;;
3683;SDS011;1858;48.716;9.648;2024-01-15T02:23:56;14.73;;;6.73;;
3683;SDS011;1858;48.716;9.648;2024-01-15T02:26:25;13.93;;;6.30;;
3683;SDS011;1858;48.716;9.648;2024-01-15T02:28:54;13.20;;;5.70;;
3683;SDS011;1858;48.716;9.648;2024-01-15T02:31:23;16.90;;;7.90;;
3683;SDS011;1858;48.716;9.648;2024-01-15T02:33:52;12.37;;;7.10;;
3683;SDS011;1858;48.716;9.648;2024-01-15T02:36:20;11.97;;;7.20;;
3683;SDS011;1858;48.716;9.648;2024-01-15T02:38:48;9.93;;;6.37;;
3683;SDS011;1858;48.716;9.648;2024-01-15T02:41:17;8.90;;;5.83;;
3683;SDS011;1858;48.716;9.648;2024-01-15T02:43:45;17.50;;;5.77;;
3683;SDS011;1858;48.716;9.648;2024-01-15T02:46:14;15.87;;;6.37;;
3683;SDS011;1858;48.716;9.648;2024-01-15T02:48:42;10.63;;;3.93;;
3683;SDS011;1858;48.716;9.648;2024-01-15T02:51:11;22.10;;;6.40;;
3683;SDS011;1858;48.716;9.648;2024-01-15T02:53:39;12.60;;;4.23;;
3683;SDS011;1858;48.716;9.648;2024-01-15T02:56:08;17.77;;;5.50;;
3683;SDS011;1858;48.716;9.648;2024-01-15T02:58:36;17.43;;;6.43;;
3683;SDS011;1858;48.716;9.648;2024-01-15T03:01:04;17.30;;;7.10;;
3683;SDS011;1858;48.716;9.648;2024-01-15T03:03:33;7.93;;;4.80;;
3683;SDS011;1858;48.716;9.648;2024-01-15T03:06:01;10.93;;;5.10;;
3683;SDS011;1858;48.716;9.648;2024-01-15T03:08:30;9.93;;;5.43;;
3683;SDS011;1858;48.716;9.648;2024-01-15T03:10:59;8.47;;;4.10;;
3683;SDS011;1858;48.716;9.648;2024-01-15T03:13:27;10.90;;;4.50;;
3683;SDS011;1858;48.716;9.648;2024-01-15T03:15:56;6.67;;;3.30;;
3683;SDS011;1858;48.716;9.648;2024-01-15T03:18:24;10.90;;;4.43;;
3683;SDS011;1858;48.716;9.648;2024-01-15T03:20:52;6.97;;;4.03;;
3683;SDS011;1858;48.716;9.648;2024-01-15T03:23:21;5.33;;;3.73;;
3683;SDS011;1858;48.716;9.648;2024-01-15T03:25:49;9.50;;;4.80;;
3683;SDS011;1858;48.716;9.648;2024-01-15T03:28:17;9.40;;;6.17;;
3683;SDS011;1858;48.716;9.648;2024-01-15T03:30:46;9.50;;;4.13;;
3683;SDS011;1858;48.716;9.648;2024-01-15T03:33:14;8.73;;;5.43;;
3683;SDS011;1858;48.716;9.648;2024-01-15T03:38:10;9.27;;;4.67;;
3683;SDS011;1858;48.716;9.648;2024-01-15T03:40:38;9.27;;;4.70;;
3683;SDS011;1858;48.716;9.648;2024-01-15T03:43:07;16.40;;;5.77;;
3683;SDS011;1858;48.716;9.648;2024-01-15T03:45:35;12.40;;;4.80;;
3683;SDS011;1858;48.716;9.648;2024-01-15T03:48:04;7.80;;;3.73;;
3683;SDS011;1858;48.716;9.648;2024-01-15T03:50:32;11.35;;;6.15;;
3683;SDS011;1858;48.716;9.648;2024-01-15T03:53:01;11.30;;;4.35;;
3683;SDS011;1858;48.716;9.648;2024-01-15T03:55:29;6.40;;;3.70;;
3683;SDS011;1858;48.716;9.648;2024-01-15T03:57:58;6.95;;;4.30;;
3683;SDS011;1858;48.716;9.648;2024-01-15T04:05:22;11.83;;;4.90;;
3683;SDS011;1858;48.716;9.648;2024-01-15T04:07:50;10.65;;;7.75;;
3683;SDS011;1858;48.716;9.648;2024-01-15T04:10:18;9.57;;;4.27;;
3683;SDS011;1858;48.716;9.648;2024-01-15T04:12:47;11.73;;;4.90;;
3683;SDS011;1858;48.716;9.648;2024-01-15T04:15:16;15.35;;;5.00;;
3683;SDS011;1858;48.716;9.648;2024-01-15T04:17:44;8.00;;;3.50;;
3683;SDS011;1858;48.716;9.648;2024-01-15T04:20:13;8.20;;;4.30;;
3683;SDS011;1858;48.716;9.648;2024-01-15T04:22:41;10.80;;;5.67;;
3683;SDS011;1858;48.716;9.648;2024-01-15T04:25:11;10.27;;;5.57;;
3683;SDS011;1858;48.716;9.648;2024-01-15T04:27:39;6.50;;;4.15;;
3683;SDS011;1858;48.716;9.648;2024-01-15T04:30:08;8.27;;;3.43;;
3683;SDS011;1858;48.716;9.648;2024-01-15T04:32:36;12.13;;;4.77;;
3683;SDS011;1858;48.716;9.648;2024-01-15T04:35:05;7.03;;;3.90;;
3683;SDS011;1858;48.716;9.648;2024-01-15T04:37:34;9.50;;;4.30;;
3683;SDS011;1858;48.716;9.648;2024-01-15T04:40:02;7.87;;;3.93;;
3683;SDS011;1858;48.716;9.648;2024-01-15T04:42:31;12.40;;;3.85;;
3683;SDS011;1858;48.716;9.648;2024-01-15T04:44:59;6.03;;;2.83;;
3683;SDS011;1858;48.716;9.648;2024-01-15T04:47:28;11.47;;;5.23;;
3683;SDS011;1858;48.716;9.648;2024-01-15T04:49:56;10.30;;;4.00;;
3683;SDS011;1858;48.716;9.648;2024-01-15T04:52:24;7.77;;;4.30;;
3683;SDS011;1858;48.716;9.648;2024-01-15T04:54:53;12.10;;;5.30;;
3683;SDS011;1858;48.716;9.648;2024-01-15T04:57:21;8.37;;;3.60;;
3683;SDS011;1858;48.716;9.648;2024-01-15T04:59:50;10.40;;;4.05;;
3683;SDS011;1858;48.716;9.648;2024-01-15T05:02:18;16.85;;;5.00;;
3683;SDS011;1858;48.716;9.648;2024-01-15T05:04:46;7.35;;;4.55;;
3683;SDS011;1858;48.716;9.648;2024-01-15T05:07:15;11.20;;;4.40;;
3683;SDS011;1858;48.716;9.648;2024-01-15T05:09:43;11.45;;;4.80;;
3683;SDS011;1858;48.716;9.648;2024-01-15T05:12:12;11.10;;;5.10;;
3683;SDS011;1858;48.716;9.648;2024-01-15T05:14:40;5.40;;;3.90;;
3683;SDS011;1858;48.716;9.648;2024-01-15T05:17:08;11.73;;;4.53;;
3683;SDS011;1858;48.716;9.648;2024-01-15T05:19:37;7.40;;;4.05;;
3683;SDS011;1858;48.716;9.648;2024-01-15T05:22:05;6.10;;;3.90;;
3683;SDS011;1858;48.716;9.648;2024-01-15T05:24:33;8.10;;;3.70;;
3683;SDS011;1858;48.716;9.648;2024-01-15T05:27:02;9.10;;;4.60;;
3683;SDS011;1858;48.716;9.648;2024-01-15T05:29:30;10.60;;;5.30;;
3683;SDS011;1858;48.716;9.648;2024-01-15T05:31:59;6.83;;;4.57;;
3683;SDS011;1858;48.716;9.648;2024-01-15T05:34:27;17.63;;;5.10;;
3683;SDS011;1858;48.716;9.648;2024-01-15T05:36:55;9.27;;;4.17;;
3683;SDS011;1858;48.716;9.648;2024-01-15T05:39:24;11.00;;;3.85;;
3683;SDS011;1858;48.716;9.648;2024-01-15T05:41:52;13.60;;;5.47;;
3683;SDS011;1858;48.716;9.648;2024-01-15T05:44:21;12.50;;;6.30;;
3683;SDS011;1858;48.716;9.648;2024-01-15T05:46:49;9.47;;;4.80;;
3683;SDS011;1858;48.716;9.648;2024-01-15T05:49:18;8.47;;;3.80;;
3683;SDS011;1858;48.716;9.648;2024-01-15T05:51:46;12.53;;;4.73;;
3683;SDS011;1858;48.716;9.648;2024-01-15T05:54:14;8.67;;;3.73;;
3683;SDS011;1858;48.716;9.648;2024-01-15T05:56:43;12.63;;;3.97;;
3683;SDS011;1858;48.716;9.648;2024-01-15T05:59:11;9.67;;;4.70;;
3683;SDS011;1858;48.716;9.648;2024-01-15T06:01:40;8.90;;;4.13;;
3683;SDS011;1858;48.716;9.648;2024-01-15T06:04:08;23.00;;;5.33;;
3683;SDS011;1858;48.716;9.648;2024-01-15T06:06:37;13.30;;;4.50;;
3683;SDS011;1858;48.716;9.648;2024-01-15T06:09:05;8.70;;;5.90;;
3683;SDS011;1858;48.716;9.648;2024-01-15T06:11:33;12.60;;;6.50;;
3683;SDS011;1858;48.716;9.648;2024-01-15T06:14:02;15.33;;;5.70;;
3683;SDS011;1858;48.716;9.648;2024-01-15T06:16:30;11.23;;;4.37;;
3683;SDS011;1858;48.716;9.648;2024-01-15T06:18:59;11.50;;;5.30;;
3683;SDS011;1858;48.716;9.648;2024-01-15T06:21:27;7.67;;;4.37;;
3683;SDS011;1858;48.716;9.648;2024-01-15T06:23:56;7.70;;;5.57;;
3683;SDS011;1858;48.716;9.648;2024-01-15T06:26:24;17.70;;;5.47;;
3683;SDS011;1858;48.716;9.648;2024-01-15T06:28:53;7.07;;;4.47;;
3683;SDS011;1858;48.716;9.648;2024-01-15T06:31:21;15.47;;;6.33;;
3683;SDS011;1858;48.716;9.648;2024-01-15T06:33:49;8.43;;;4.03;;
3683;SDS011;1858;48.716;9.648;2024-01-15T06:36:18;8.60;;;4.67;;
3683;SDS011;1858;48.716;9.648;2024-01-15T06:38:46;9.40;;;4.13;;
3683;SDS011;1858;48.716;9.648;2024-01-15T06:41:15;13.17;;;6.07;;
3683;SDS011;1858;48.716;9.648;2024-01-15T06:43:43;10.33;;;4.07;;
3683;SDS011;1858;48.716;9.648;2024-01-15T06:46:11;9.10;;;4.33;;
3683;SDS011;1858;48.716;9.648;2024-01-15T06:48:41;12.60;;;6.13;;
3683;SDS011;1858;48.716;9.648;2024-01-15T06:51:10;8.50;;;3.87;;
3683;SDS011;1858;48.716;9.648;2024-01-15T06:53:38;14.87;;;4.80;;
3683;SDS011;1858;48.716;9.648;2024-01-15T06:56:06;5.80;;;3.80;;
3683;SDS011;1858;48.716;9.648;2024-01-15T06:58:35;10.07;;;4.10;;
3683;SDS011;1858;48.716;9.648;2024-01-15T07:01:03;9.20;;;5.13;;
3683;SDS011;1858;48.716;9.648;2024-01-15T07:30:36;11.03;;;5.42;;
3683;SDS011;1858;48.716;9.648;2024-01-15T07:33:07;10.80;;;4.53;;
3683;SDS011;1858;48.716;9.648;2024-01-15T07:38:23;6.37;;;4.07;;
3683;SDS011;1858;48.716;9.648;2024-01-15T07:40:52;4.97;;;3.37;;
3683;SDS011;1858;48.716;9.648;2024-01-15T07:43:20;7.40;;;3.87;;
3683;SDS011;1858;48.716;9.648;2024-01-15T07:48:17;5.97;;;3.83;;
3683;SDS011;1858;48.716;9.648;2024-01-15T07:50:45;9.23;;;4.03;;
3683;SDS011;1858;48.716;9.648;2024-01-15T07:53:13;7.33;;;4.73;;
3683;SDS011;1858;48.716;9.648;2024-01-15T07:55:42;12.00;;;5.10;;
3683;SDS011;1858;48.716;9.648;2024-01-15T07:58:12;8.23;;;3.43;;
3683;SDS011;1858;48.716;9.648;2024-01-15T08:00:40;14.20;;;5.50;;
3683;SDS011;1858;48.716;9.648;2024-01-15T08:03:09;8.50;;;4.67;;
3683;SDS011;1858;48.716;9.648;2024-01-15T08:05:38;10.17;;;4.37;;
3683;SDS011;1858;48.716;9.648;2024-01-15T08:08:06;5.25;;;2.85;;
3683;SDS011;1858;48.716;9.648;2024-01-15T08:10:34;9.57;;;5.37;;
3683;SDS011;1858;48.716;9.648;2024-01-15T08:13:03;9.30;;;4.00;;
3683;SDS011;1858;48.716;9.648;2024-01-15T08:15:31;8.37;;;4.30;;
3683;SDS011;1858;48.716;9.648;2024-01-15T08:17:59;6.80;;;3.70;;
3683;SDS011;1858;48.716;9.648;2024-01-15T08:20:29;6.10;;;3.43;;
3683;SDS011;1858;48.716;9.648;2024-01-15T08:22:57;10.63;;;3.13;;
3683;SDS011;1858;48.716;9.648;2024-01-15T08:25:26;9.20;;;4.67;;
3683;SDS011;1858;48.716;9.648;2024-01-15T08:27:55;12.37;;;5.47;;
3683;SDS011;1858;48.716;9.648;2024-01-15T08:30:27;5.10;;;4.00;;
3683;SDS011;1858;48.716;9.648;2024-01-15T08:32:55;8.53;;;4.67;;
3683;SDS011;1858;48.716;9.648;2024-01-15T08:35:25;7.37;;;3.43;;
3683;SDS011;1858;48.716;9.648;2024-01-15T08:47:45;10.10;;;5.95;;
3683;SDS011;1858;48.716;9.648;2024-01-15T08:50:13;10.47;;;5.10;;
3683;SDS011;1858;48.716;9.648;2024-01-15T08:52:42;6.30;;;4.20;;
3683;SDS011;1858;48.716;9.648;2024-01-15T08:55:10;4.83;;;3.40;;
3683;SDS011;1858;48.716;9.648;2024-01-15T09:00:27;9.00;;;4.80;;
3683;SDS011;1858;48.716;9.648;2024-01-15T09:02:56;10.33;;;3.90;;
3683;SDS011;1858;48.716;9.648;2024-01-15T09:05:24;5.90;;;3.17;;
3683;SDS011;1858;48.716;9.648;2024-01-15T09:07:53;11.50;;;3.40;;
3683;SDS011;1858;48.716;9.648;2024-01-15T09:10:21;13.37;;;3.77;;
3683;SDS011;1858;48.716;9.648;2024-01-15T09:12:50;5.00;;;3.17;;
3683;SDS011;1858;48.716;9.648;2024-01-15T09:15:19;10.30;;;5.03;;
3683;SDS011;1858;48.716;9.648;2024-01-15T09:17:47;7.80;;;2.87;;
3683;SDS011;1858;48.716;9.648;2024-01-15T09:20:16;4.60;;;3.33;;
3683;SDS011;1858;48.716;9.648;2024-01-15T09:22:45;6.53;;;4.13;;
3683;SDS011;1858;48.716;9.648;2024-01-15T09:25:13;5.63;;;3.40;;
3683;SDS011;1858;48.716;9.648;2024-01-15T09:27:42;9.30;;;4.43;;
3683;SDS011;1858;48.716;9.648;2024-01-15T09:30:10;9.60;;;4.80;;
3683;SDS011;1858;48.716;9.648;2024-01-15T09:32:39;12.47;;;6.00;;
3683;SDS011;1858;48.716;9.648;2024-01-15T09:35:08;15.37;;;6.00;;
3683;SDS011;1858;48.716;9.648;2024-01-15T09:37:37;5.50;;;4.30;;
3683;SDS011;1858;48.716;9.648;2024-01-15T09:40:06;11.20;;;6.47;;
3683;SDS011;1858;48.716;9.648;2024-01-15T09:45:30;14.65;;;5.78;;
3683;SDS011;1858;48.716;9.648;2024-01-15T09:47:59;9.00;;;5.20;;
3683;SDS011;1858;48.716;9.648;2024-01-15T09:50:27;9.70;;;4.77;;
3683;SDS011;1858;48.716;9.648;2024-01-15T09:52:56;16.90;;;6.87;;
3683;SDS011;1858;48.716;9.648;2024-01-15T09:55:25;10.77;;;3.73;;
3683;SDS011;1858;48.716;9.648;2024-01-15T09:57:55;9.47;;;4.17;;
3683;SDS011;1858;48.716;9.648;2024-01-15T10:00:25;7.70;;;3.40;;
3683;SDS011;1858;48.716;9.648;2024-01-15T10:02:55;8.87;;;3.67;;
3683;SDS011;1858;48.716;9.648;2024-01-15T10:05:24;9.57;;;5.03;;
3683;SDS011;1858;48.716;9.648;2024-01-15T10:10:22;10.17;;;4.63;;
3683;SDS011;1858;48.716;9.648;2024-01-15T10:12:50;13.60;;;4.65;;
3683;SDS011;1858;48.716;9.648;2024-01-15T10:15:21;7.50;;;5.03;;
3683;SDS011;1858;48.716;9.648;2024-01-15T10:17:53;6.60;;;4.77;;
3683;SDS011;1858;48.716;9.648;2024-01-15T10:23:09;8.37;;;4.10;;
3683;SDS011;1858;48.716;9.648;2024-01-15T10:28:28;10.40;;;3.43;;
3683;SDS011;1858;48.716;9.648;2024-01-15T10:31:19;2.90;;;2.30;;
3683;SDS011;1858;48.716;9.648;2024-01-15T10:33:48;4.70;;;2.10;;
3683;SDS011;1858;48.716;9.648;2024-01-15T10:36:17;7.00;;;3.33;;
3683;SDS011;1858;48.716;9.648;2024-01-15T10:38:46;3.73;;;1.67;;
3683;SDS011;1858;48.716;9.648;2024-01-15T10:41:14;5.47;;;2.47;;
3683;SDS011;1858;48.716;9.648;2024-01-15T10:43:43;5.70;;;2.70;;
3683;SDS011;1858;48.716;9.648;2024-01-15T10:46:11;5.37;;;2.87;;
3683;SDS011;1858;48.716;9.648;2024-01-15T10:48:40;4.77;;;2.20;;
3683;SDS011;1858;48.716;9.648;2024-01-15T10:51:09;5.37;;;2.30;;
3683;SDS011;1858;48.716;9.648;2024-01-15T10:53:44;5.47;;;2.27;;
3683;SDS011;1858;48.716;9.648;2024-01-15T10:56:09;2.67;;;1.87;;
3683;SDS011;1858;48.716;9.648;2024-01-15T10:58:39;4.33;;;2.50;;
3683;SDS011;1858;48.716;9.648;2024-01-15T11:01:09;3.83;;;2.77;;
3683;SDS011;1858;48.716;9.648;2024-01-15T11:03:39;2.70;;;1.70;;
3683;SDS011;1858;48.716;9.648;2024-01-15T11:06:17;4.33;;;2.87;;
3683;SDS011;1858;48.716;9.648;2024-01-15T11:08:48;14.20;;;3.20;;
3683;SDS011;1858;48.716;9.648;2024-01-15T11:11:17;3.23;;;2.73;;
3683;SDS011;1858;48.716;9.648;2024-01-15T11:13:49;2.73;;;1.93;;
3683;SDS011;1858;48.716;9.648;2024-01-15T11:16:19;5.30;;;2.22;;
3683;SDS011;1858;48.716;9.648;2024-01-15T11:21:28;4.17;;;2.70;;
3683;SDS011;1858;48.716;9.648;2024-01-15T11:24:02;3.90;;;2.53;;
3683;SDS011;1858;48.716;9.648;2024-01-15T11:26:33;4.20;;;1.80;;
3683;SDS011;1858;48.716;9.648;2024-01-15T11:34:14;3.30;;;2.50;;
3683;SDS011;1858;48.716;9.648;2024-01-15T11:41:59;5.10;;;3.10;;
3683;SDS011;1858;48.716;9.648;2024-01-15T11:44:31;9.30;;;3.40;;
3683;SDS011;1858;48.716;9.648;2024-01-15T11:47:00;3.80;;;2.30;;
3683;SDS011;1858;48.716;9.648;2024-01-15T11:52:22;3.60;;;2.70;;
3683;SDS011;1858;48.716;9.648;2024-01-15T12:00:47;3.30;;;1.70;;
3683;SDS011;1858;48.716;9.648;2024-01-15T12:03:17;6.60;;;2.50;;
3683;SDS011;1858;48.716;9.648;2024-01-15T12:05:47;4.20;;;2.10;;
3683;SDS011;1858;48.716;9.648;2024-01-15T12:08:20;4.60;;;1.90;;
3683;SDS011;1858;48.716;9.648;2024-01-15T12:11:06;3.30;;;1.93;;
3683;SDS011;1858;48.716;9.648;2024-01-15T12:13:36;5.77;;;2.30;;
3683;SDS011;1858;48.716;9.648;2024-01-15T12:16:04;4.30;;;2.30;;
3683;SDS011;1858;48.716;9.648;2024-01-15T12:18:33;6.57;;;2.67;;
3683;SDS011;1858;48.716;9.648;2024-01-15T12:21:03;5.90;;;2.70;;
3683;SDS011;1858;48.716;9.648;2024-01-15T12:23:33;4.17;;;3.43;;
3683;SDS011;1858;48.716;9.648;2024-01-15T12:26:01;3.53;;;2.80;;
3683;SDS011;1858;48.716;9.648;2024-01-15T12:28:32;3.03;;;1.93;;
3683;SDS011;1858;48.716;9.648;2024-01-15T12:31:00;3.87;;;2.47;;
3683;SDS011;1858;48.716;9.648;2024-01-15T12:33:30;2.80;;;1.70;;
3683;SDS011;1858;48.716;9.648;2024-01-15T12:35:58;3.37;;;1.87;;
3683;SDS011;1858;48.716;9.648;2024-01-15T12:41:15;4.13;;;2.53;;
3683;SDS011;1858;48.716;9.648;2024-01-15T12:43:43;6.00;;;3.13;;
3683;SDS011;1858;48.716;9.648;2024-01-15T12:46:12;5.00;;;2.50;;
3683;SDS011;1858;48.716;9.648;2024-01-15T12:48:40;5.45;;;2.52;;
3683;SDS011;1858;48.716;9.648;2024-01-15T12:51:08;4.43;;;2.33;;
3683;SDS011;1858;48.716;9.648;2024-01-15T12:53:37;4.03;;;2.93;;
3683;SDS011;1858;48.716;9.648;2024-01-15T12:56:05;4.37;;;1.80;;
3683;SDS011;1858;48.716;9.648;2024-01-15T12:58:34;5.07;;;2.50;;
3683;SDS011;1858;48.716;9.648;2024-01-15T13:03:43;7.90;;;4.20;;
3683;SDS011;1858;48.716;9.648;2024-01-15T13:06:11;8.98;;;4.62;;
3683;SDS011;1858;48.716;9.648;2024-01-15T13:08:39;7.03;;;5.20;;
3683;SDS011;1858;48.716;9.648;2024-01-15T13:11:08;5.50;;;3.67;;
3683;SDS011;1858;48.716;9.648;2024-01-15T13:13:37;5.20;;;3.40;;
3683;SDS011;1858;48.716;9.648;2024-01-15T13:16:05;6.83;;;3.02;;
3683;SDS011;1858;48.716;9.648;2024-01-15T13:18:34;5.20;;;3.13;;
3683;SDS011;1858;48.716;9.648;2024-01-15T13:21:03;6.22;;;3.20;;
3683;SDS011;1858;48.716;9.648;2024-01-15T13:23:31;6.12;;;3.55;;
3683;SDS011;1858;48.716;9.648;2024-01-15T13:26:00;6.07;;;3.70;;
3683;SDS011;1858;48.716;9.648;2024-01-15T13:28:28;5.53;;;3.20;;
3683;SDS011;1858;48.716;9.648;2024-01-15T13:30:56;7.73;;;3.30;;
3683;SDS011;1858;48.716;9.648;2024-01-15T13:33:25;5.70;;;3.40;;
3683;SDS011;1858;48.716;9.648;2024-01-15T13:35:53;7.97;;;4.10;;
3683;SDS011;1858;48.716;9.648;2024-01-15T13:38:22;6.10;;;3.43;;
3683;SDS011;1858;48.716;9.648;2024-01-15T13:40:51;4.20;;;2.90;;
3683;SDS011;1858;48.716;9.648;2024-01-15T13:43:19;3.70;;;2.80;;
3683;SDS011;1858;48.716;9.648;2024-01-15T13:45:47;8.63;;;3.90;;
3683;SDS011;1858;48.716;9.648;2024-01-15T13:48:17;3.77;;;2.40;;
3683;SDS011;1858;48.716;9.648;2024-01-15T13:50:45;5.50;;;3.00;;
3683;SDS011;1858;48.716;9.648;2024-01-15T13:53:14;4.70;;;2.70;;
3683;SDS011;1858;48.716;9.648;2024-01-15T13:55:42;4.60;;;3.30;;
3683;SDS011;1858;48.716;9.648;2024-01-15T13:58:10;3.70;;;2.90;;
3683;SDS011;1858;48.716;9.648;2024-01-15T14:00:39;3.00;;;2.50;;
3683;SDS011;1858;48.716;9.648;2024-01-15T14:03:08;9.63;;;2.90;;
3683;SDS011;1858;48.716;9.648;2024-01-15T14:05:36;4.67;;;3.00;;
3683;SDS011;1858;48.716;9.648;2024-01-15T14:08:05;5.83;;;2.70;;
3683;SDS011;1858;48.716;9.648;2024-01-15T14:10:34;10.67;;;4.87;;
3683;SDS011;1858;48.716;9.648;2024-01-15T14:13:04;6.97;;;2.90;;
3683;SDS011;1858;48.716;9.648;2024-01-15T14:15:32;4.70;;;2.33;;
3683;SDS011;1858;48.716;9.648;2024-01-15T14:18:00;5.83;;;2.73;;
3683;SDS011;1858;48.716;9.648;2024-01-15T14:20:29;5.80;;;3.00;;
3683;SDS011;1858;48.716;9.648;2024-01-15T14:22:57;5.70;;;3.17;;
3683;SDS011;1858;48.716;9.648;2024-01-15T14:25:26;5.23;;;2.93;;
3683;SDS011;1858;48.716;9.648;2024-01-15T14:27:54;3.93;;;2.23;;
3683;SDS011;1858;48.716;9.648;2024-01-15T14:30:22;7.27;;;3.43;;
3683;SDS011;1858;48.716;9.648;2024-01-15T14:32:51;4.40;;;2.50;;
3683;SDS011;1858;48.716;9.648;2024-01-15T14:35:19;8.03;;;3.33;;
3683;SDS011;1858;48.716;9.648;2024-01-15T14:37:48;9.10;;;3.60;;
3683;SDS011;1858;48.716;9.648;2024-01-15T14:40:16;6.87;;;3.90;;
3683;SDS011;1858;48.716;9.648;2024-01-15T14:42:45;5.77;;;3.50;;
3683;SDS011;1858;48.716;9.648;2024-01-15T14:45:13;5.07;;;3.67;;
3683;SDS011;1858;48.716;9.648;2024-01-15T14:47:41;4.60;;;3.13;;
3683;SDS011;1858;48.716;9.648;2024-01-15T14:50:11;6.83;;;3.97;;
3683;SDS011;1858;48.716;9.648;2024-01-15T14:52:39;10.00;;;4.20;;
3683;SDS011;1858;48.716;9.648;2024-01-15T14:55:08;5.10;;;3.20;;
3683;SDS011;1858;48.716;9.648;2024-01-15T14:57:37;5.57;;;3.83;;
3683;SDS011;1858;48.716;9.648;2024-01-15T15:00:06;7.07;;;3.00;;
3683;SDS011;1858;48.716;9.648;2024-01-15T15:02:35;4.70;;;3.50;;
3683;SDS011;1858;48.716;9.648;2024-01-15T15:05:04;5.60;;;2.80;;
3683;SDS011;1858;48.716;9.648;2024-01-15T15:07:34;3.10;;;2.50;;
3683;SDS011;1858;48.716;9.648;2024-01-15T15:10:03;3.10;;;2.47;;
3683;SDS011;1858;48.716;9.648;2024-01-15T15:12:31;3.73;;;2.37;;
3683;SDS011;1858;48.716;9.648;2024-01-15T15:15:00;3.07;;;2.73;;
3683;SDS011;1858;48.716;9.648;2024-01-15T15:17:29;5.53;;;2.97;;
3683;SDS011;1858;48.716;9.648;2024-01-15T15:19:57;4.73;;;2.77;;
3683;SDS011;1858;48.716;9.648;2024-01-15T15:22:26;2.70;;;2.43;;
3683;SDS011;1858;48.716;9.648;2024-01-15T15:24:54;3.07;;;2.50;;
3683;SDS011;1858;48.716;9.648;2024-01-15T15:27:23;9.77;;;5.63;;
3683;SDS011;1858;48.716;9.648;2024-01-15T15:29:51;6.93;;;2.77;;
3683;SDS011;1858;48.716;9.648;2024-01-15T15:32:20;6.27;;;4.00;;
3683;SDS011;1858;48.716;9.648;2024-01-15T15:34:50;3.47;;;2.90;;
3683;SDS011;1858;48.716;9.648;2024-01-15T15:37:18;3.93;;;2.67;;
3683;SDS011;1858;48.716;9.648;2024-01-15T15:39:47;4.33;;;3.10;;
3683;SDS011;1858;48.716;9.648;2024-01-15T15:42:15;3.20;;;2.50;;
3683;SDS011;1858;48.716;9.648;2024-01-15T15:44:43;7.33;;;3.77;;
3683;SDS011;1858;48.716;9.648;2024-01-15T15:47:15;4.27;;;2.97;;
3683;SDS011;1858;48.716;9.648;2024-01-15T15:49:44;4.60;;;3.23;;
3683;SDS011;1858;48.716;9.648;2024-01-15T15:52:12;4.30;;;3.30;;
3683;SDS011;1858;48.716;9.648;2024-01-15T15:54:40;5.70;;;2.93;;
3683;SDS011;1858;48.716;9.648;2024-01-15T15:57:09;5.17;;;3.20;;
3683;SDS011;1858;48.716;9.648;2024-01-15T15:59:37;3.40;;;2.90;;
3683;SDS011;1858;48.716;9.648;2024-01-15T16:02:06;5.30;;;3.63;;
3683;SDS011;1858;48.716;9.648;2024-01-15T16:04:34;6.30;;;3.13;;
3683;SDS011;1858;48.716;9.648;2024-01-15T16:07:02;4.63;;;3.40;;
3683;SDS011;1858;48.716;9.648;2024-01-15T16:09:33;5.20;;;3.80;;
3683;SDS011;1858;48.716;9.648;2024-01-15T16:12:01;4.37;;;3.03;;
3683;SDS011;1858;48.716;9.648;2024-01-15T16:14:30;7.90;;;4.10;;
3683;SDS011;1858;48.716;9.648;2024-01-15T16:16:58;3.85;;;3.25;;
3683;SDS011;1858;48.716;9.648;2024-01-15T16:24:22;6.00;;;2.80;;
3683;SDS011;1858;48.716;9.648;2024-01-15T16:29:19;5.70;;;3.47;;
3683;SDS011;1858;48.716;9.648;2024-01-15T16:31:47;11.10;;;4.37;;
3683;SDS011;1858;48.716;9.648;2024-01-15T16:34:15;5.07;;;3.60;;
3683;SDS011;1858;48.716;9.648;2024-01-15T16:36:44;4.30;;;3.00;;
3683;SDS011;1858;48.716;9.648;2024-01-15T16:39:12;3.77;;;3.10;;
3683;SDS011;1858;48.716;9.648;2024-01-15T16:41:41;4.23;;;2.90;;
3683;SDS011;1858;48.716;9.648;2024-01-15T16:44:09;4.07;;;3.00;;
3683;SDS011;1858;48.716;9.648;2024-01-15T16:46:37;4.73;;;3.17;;
3683;SDS011;1858;48.716;9.648;2024-01-15T16:49:06;11.23;;;4.27;;
3683;SDS011;1858;48.716;9.648;2024-01-15T16:51:36;3.57;;;3.27;;
3683;SDS011;1858;48.716;9.648;2024-01-15T16:54:04;4.93;;;3.27;;
3683;SDS011;1858;48.716;9.648;2024-01-15T16:56:34;10.13;;;4.20;;
3683;SDS011;1858;48.716;9.648;2024-01-15T16:59:02;9.97;;;3.73;;
3683;SDS011;1858;48.716;9.648;2024-01-15T17:01:31;7.03;;;4.10;;